Time;durP1;ratioP1;P1;durP2;ratioP2;P2;SDS_P1;SDS_P2;PMS_P1;PMS_P2;Temp;Humidity;BMP_temperature;BMP_pressure;BME280_temperature;BME280_humidity;BME280_pressure;Samples;Min_cycle;Max_cycle;Signal;HPM_P1;HPM_P2
2023/03/29 00:00:27;;;;;;;8.02;4.60;;;5.50;99.90;;;;;;5088530;28;20052;-82
2023/03/29 00:03:14;;;;;;;8.40;4.30;;;5.60;99.90;;;;;;5073066;28;20040;-84
2023/03/29 00:06:01;;;;;;;9.10;4.10;;;5.50;99.90;;;;;;5070173;28;20048;-82
2023/03/29 00:08:50;;;;;;;8.30;3.80;;;5.60;99.90;;;;;;5090771;28;20139;-83
2023/03/29 00:11:36;;;;;;;11.48;4.45;;;5.50;99.90;;;;;;5098127;28;20048;-82
2023/03/29 00:14:23;;;;;;;8.90;3.65;;;5.60;99.90;;;;;;5089192;28;20044;-81
2023/03/29 00:17:09;;;;;;;11.43;4.10;;;5.50;99.90;;;;;;5088725;28;20040;-85
2023/03/29 00:19:55;;;;;;;8.27;4.50;;;5.50;99.90;;;;;;5088601;28;20048;-82
2023/03/29 00:22:42;;;;;;;8.65;4.20;;;5.50;99.90;;;;;;5088600;28;20102;-82
2023/03/29 00:25:28;;;;;;;11.88;4.15;;;5.50;99.90;;;;;;5097323;28;20048;-82
2023/03/29 00:28:14;;;;;;;8.38;3.78;;;5.50;99.90;;;;;;5090103;28;20047;-82
2023/03/29 00:31:09;;;;;;;9.38;4.63;;;5.50;99.90;;;;;;5087821;28;20059;-84
2023/03/29 00:33:55;;;;;;;9.85;3.60;;;5.50;99.90;;;;;;5088972;28;20052;-82
2023/03/29 00:36:42;;;;;;;7.97;3.97;;;5.50;99.90;;;;;;5070763;28;20066;-82
2023/03/29 00:39:29;;;;;;;11.23;3.85;;;5.50;99.90;;;;;;5090541;28;20109;-84
2023/03/29 00:42:16;;;;;;;8.95;3.58;;;5.50;99.90;;;;;;5068545;28;20052;-85
2023/03/29 00:45:17;;;;;;;7.45;3.75;;;5.60;99.90;;;;;;5088775;28;20067;-85
2023/03/29 00:48:11;;;;;;;8.00;4.28;;;5.60;99.90;;;;;;5089900;28;20197;-83
2023/03/29 00:51:02;;;;;;;7.38;3.75;;;5.60;99.90;;;;;;5074793;28;20044;-83
2023/03/29 00:53:52;;;;;;;13.40;3.95;;;5.60;99.90;;;;;;5079862;28;20048;-85
2023/03/29 00:56:42;;;;;;;9.02;3.67;;;5.60;99.90;;;;;;5091436;28;20522;-85
2023/03/29 00:59:31;;;;;;;8.23;3.80;;;5.60;99.90;;;;;;5078641;28;20040;-85
2023/03/29 01:02:21;;;;;;;9.23;3.88;;;5.60;99.90;;;;;;5060365;28;20574;-84
2023/03/29 01:05:24;;;;;;;6.90;3.08;;;5.60;99.90;;;;;;5091312;28;20063;-85
2023/03/29 01:08:20;;;;;;;7.00;3.85;;;5.60;99.90;;;;;;5098088;28;20087;-84
2023/03/29 01:11:33;;;;;;;11.98;3.95;;;5.60;99.90;;;;;;5059411;28;20079;-84
2023/03/29 01:14:32;;;;;;;8.18;2.95;;;5.60;99.90;;;;;;5092021;28;20052;-85
2023/03/29 01:17:24;;;;;;;8.18;3.47;;;5.60;99.90;;;;;;5091697;28;20059;-85
2023/03/29 01:20:16;;;;;;;8.30;3.40;;;5.60;99.90;;;;;;5092911;28;20056;-84
2023/03/29 01:23:17;;;;;;;7.95;3.70;;;5.60;99.90;;;;;;5096140;28;20104;-86
2023/03/29 01:26:09;;;;;;;6.57;2.95;;;5.60;99.90;;;;;;5076873;28;20048;-83
2023/03/29 01:29:08;;;;;;;8.75;3.70;;;5.60;99.90;;;;;;5091928;28;20052;-83
2023/03/29 01:32:01;;;;;;;7.03;3.67;;;5.60;99.90;;;;;;5091468;28;20492;-84
2023/03/29 01:35:03;;;;;;;10.57;3.53;;;5.60;99.90;;;;;;5078404;28;20181;-82
2023/03/29 01:38:16;;;;;;;9.27;3.85;;;5.60;99.90;;;;;;5081364;28;20070;-82
2023/03/29 01:41:02;;;;;;;7.07;3.22;;;5.50;99.90;;;;;;5087071;28;20055;-84
2023/03/29 01:43:52;;;;;;;8.65;3.17;;;5.60;99.90;;;;;;5092178;28;20048;-82
2023/03/29 01:46:50;;;;;;;11.27;3.55;;;5.60;99.90;;;;;;5091092;28;20036;-85
2023/03/29 01:50:01;;;;;;;6.60;3.55;;;5.60;99.90;;;;;;5092015;28;20399;-85
2023/03/29 01:53:06;;;;;;;8.20;3.25;;;5.60;99.90;;;;;;5097257;28;20044;-84
2023/03/29 01:55:55;;;;;;;10.00;3.63;;;5.50;99.90;;;;;;5090866;28;20131;-83
2023/03/29 01:58:46;;;;;;;8.35;3.53;;;5.50;99.90;;;;;;5091645;28;20144;-84
2023/03/29 02:01:37;;;;;;;6.80;3.47;;;5.60;99.90;;;;;;5075158;28;20044;-82
2023/03/29 02:04:30;;;;;;;13.82;5.13;;;5.50;99.90;;;;;;5070635;28;20055;-86
2023/03/29 02:07:20;;;;;;;10.43;3.65;;;5.50;99.90;;;;;;5096101;28;20048;-82
2023/03/29 02:10:08;;;;;;;11.32;3.25;;;5.50;99.90;;;;;;5062537;28;20048;-83
2023/03/29 02:12:55;;;;;;;11.25;4.00;;;5.50;99.90;;;;;;5077959;28;20481;-83
2023/03/29 02:15:46;;;;;;;6.57;3.30;;;5.50;99.90;;;;;;5090223;28;20048;-86
2023/03/29 02:18:33;;;;;;;7.55;3.90;;;5.50;99.90;;;;;;5089895;28;20495;-84
2023/03/29 02:21:55;;;;;;;6.60;3.42;;;5.50;99.90;;;;;;5097615;28;20102;-84
2023/03/29 02:24:45;;;;;;;9.07;3.67;;;5.50;99.90;;;;;;5070294;28;20047;-83
2023/03/29 02:27:31;;;;;;;7.85;2.85;;;5.50;99.90;;;;;;5073664;28;20572;-85
2023/03/29 02:30:19;;;;;;;8.75;3.47;;;5.50;99.90;;;;;;5089816;28;20048;-82
2023/03/29 02:33:12;;;;;;;7.93;3.60;;;5.50;99.90;;;;;;5079601;28;20136;-86
2023/03/29 02:36:13;;;;;;;7.75;3.67;;;5.50;99.90;;;;;;5072434;28;20071;-83
2023/03/29 02:39:03;;;;;;;9.20;3.80;;;5.60;99.90;;;;;;5091061;28;20052;-83
2023/03/29 02:41:50;;;;;;;6.60;2.78;;;5.50;99.90;;;;;;5089250;28;20040;-85
2023/03/29 02:44:39;;;;;;;9.43;4.03;;;5.50;99.90;;;;;;5074566;28;20044;-86
2023/03/29 02:47:40;;;;;;;7.50;3.53;;;5.50;99.90;;;;;;5074795;28;20110;-83
2023/03/29 02:50:31;;;;;;;8.32;3.47;;;5.50;99.90;;;;;;5092944;28;20045;-84
2023/03/29 02:53:23;;;;;;;10.43;3.85;;;5.60;99.90;;;;;;5074445;28;20050;-85
2023/03/29 02:56:09;;;;;;;5.90;2.60;;;5.60;99.90;;;;;;5094409;28;20563;-85
2023/03/29 02:58:55;;;;;;;6.65;3.33;;;5.60;99.90;;;;;;5094944;28;20052;-81
2023/03/29 03:01:44;;;;;;;8.38;4.13;;;5.60;99.90;;;;;;5094188;28;20123;-81
2023/03/29 03:04:32;;;;;;;9.32;3.55;;;5.60;99.90;;;;;;5081941;28;20104;-83
2023/03/29 03:07:19;;;;;;;9.05;3.47;;;5.60;99.90;;;;;;5113092;28;20052;-85
2023/03/29 03:10:07;;;;;;;8.15;2.78;;;5.60;99.90;;;;;;5115564;28;20104;-86
2023/03/29 03:12:53;;;;;;;7.38;3.53;;;5.60;99.90;;;;;;5109414;28;20054;-87
2023/03/29 03:15:41;;;;;;;7.43;3.53;;;5.60;99.90;;;;;;5110540;28;20384;-84
2023/03/29 03:18:27;;;;;;;6.15;3.10;;;5.60;99.90;;;;;;5109477;28;20050;-86
2023/03/29 03:21:13;;;;;;;9.05;3.58;;;5.60;99.90;;;;;;5109968;28;20043;-83
2023/03/29 03:23:59;;;;;;;8.80;3.78;;;5.60;99.90;;;;;;5111598;28;20093;-85
2023/03/29 03:26:45;;;;;;;8.85;3.97;;;5.70;99.90;;;;;;5119112;28;20081;-86
2023/03/29 03:29:31;;;;;;;11.23;4.10;;;5.70;99.90;;;;;;5112838;28;20392;-87
2023/03/29 03:32:17;;;;;;;14.95;4.10;;;5.70;99.90;;;;;;5110777;28;20047;-86
2023/03/29 03:35:06;;;;;;;9.80;4.63;;;5.70;99.90;;;;;;5091566;28;20086;-86
2023/03/29 03:37:52;;;;;;;9.18;4.72;;;5.70;99.90;;;;;;5108550;28;20047;-84
2023/03/29 03:40:38;;;;;;;9.63;3.65;;;5.70;99.90;;;;;;5119460;28;20043;-84
2023/03/29 03:43:24;;;;;;;7.00;3.15;;;5.70;99.90;;;;;;5093893;28;20043;-86
2023/03/29 03:46:11;;;;;;;8.30;3.88;;;5.70;99.90;;;;;;5109660;28;20082;-83
2023/03/29 03:48:58;;;;;;;7.88;4.78;;;5.80;99.90;;;;;;5109248;28;20044;-87
2023/03/29 03:51:44;;;;;;;11.25;4.50;;;5.70;99.90;;;;;;5110041;28;20044;-86
2023/03/29 03:54:30;;;;;;;8.45;3.75;;;5.80;99.90;;;;;;5093948;28;20066;-86
2023/03/29 03:57:17;;;;;;;13.05;4.45;;;5.80;99.90;;;;;;5115004;28;20083;-83
2023/03/29 04:00:09;;;;;;;10.88;4.97;;;5.80;99.90;;;;;;5110349;28;20048;-86
2023/03/29 04:02:55;;;;;;;10.43;4.70;;;5.80;99.90;;;;;;5094038;28;20048;-86
2023/03/29 04:05:42;;;;;;;17.08;4.43;;;5.70;99.90;;;;;;5109333;28;20063;-87
2023/03/29 04:08:29;;;;;;;14.75;4.93;;;5.80;99.90;;;;;;5096842;28;20059;-85
2023/03/29 04:11:15;;;;;;;10.75;4.32;;;5.80;99.90;;;;;;5110197;28;20073;-83
2023/03/29 04:14:01;;;;;;;12.00;4.55;;;5.80;99.90;;;;;;5108839;28;20112;-83
2023/03/29 04:16:47;;;;;;;10.68;4.60;;;5.80;99.90;;;;;;5109271;28;20051;-86
2023/03/29 04:19:34;;;;;;;9.07;4.32;;;5.80;99.90;;;;;;5108954;28;20416;-83
2023/03/29 04:22:20;;;;;;;9.93;4.32;;;5.80;99.90;;;;;;5112444;28;20492;-85
2023/03/29 04:25:07;;;;;;;9.25;5.05;;;5.80;99.90;;;;;;5109277;28;20075;-86
2023/03/29 04:27:53;;;;;;;10.35;5.03;;;5.80;99.90;;;;;;5091996;28;20055;-84
2023/03/29 04:30:39;;;;;;;8.90;4.18;;;5.80;99.90;;;;;;5092556;28;20048;-84
2023/03/29 04:33:27;;;;;;;9.73;4.55;;;5.80;99.90;;;;;;5091340;28;20416;-85
2023/03/29 04:36:14;;;;;;;11.82;5.00;;;5.80;99.90;;;;;;5095017;28;20152;-87
2023/03/29 04:39:00;;;;;;;9.82;4.50;;;5.80;99.90;;;;;;5114043;28;20154;-86
2023/03/29 04:41:47;;;;;;;9.25;4.93;;;5.80;99.90;;;;;;5097731;28;20054;-84
2023/03/29 04:44:33;;;;;;;9.90;4.55;;;5.80;99.90;;;;;;5113913;28;20384;-87
2023/03/29 04:47:22;;;;;;;9.75;4.60;;;5.80;99.90;;;;;;5111899;28;20487;-84
2023/03/29 04:50:09;;;;;;;11.90;5.43;;;5.80;99.90;;;;;;5097440;28;20051;-87
2023/03/29 04:52:55;;;;;;;12.50;5.22;;;5.80;99.90;;;;;;5121855;28;20067;-84
2023/03/29 04:55:42;;;;;;;9.60;5.22;;;5.80;99.90;;;;;;5112470;28;20457;-86
2023/03/29 04:58:28;;;;;;;9.68;5.32;;;5.80;99.90;;;;;;5111872;28;20403;-82
2023/03/29 05:01:14;;;;;;;9.27;4.85;;;5.80;99.90;;;;;;5112500;28;20040;-82
2023/03/29 05:04:01;;;;;;;9.77;5.45;;;5.80;99.90;;;;;;5111079;28;20054;-86
2023/03/29 05:06:47;;;;;;;9.85;4.93;;;5.80;99.90;;;;;;5113761;28;20048;-88
2023/03/29 05:09:34;;;;;;;10.40;5.15;;;5.80;99.90;;;;;;5084611;28;20052;-83
2023/03/29 05:12:20;;;;;;;12.73;5.57;;;5.80;99.90;;;;;;5097286;28;20051;-86
2023/03/29 05:15:08;;;;;;;8.65;4.97;;;5.80;99.90;;;;;;5112226;28;20454;-85
2023/03/29 05:17:54;;;;;;;11.70;6.55;;;5.80;99.90;;;;;;5112348;28;20075;-84
2023/03/29 05:20:41;;;;;;;14.77;5.75;;;5.80;99.90;;;;;;5116248;28;20048;-84
2023/03/29 05:23:27;;;;;;;9.57;5.13;;;5.80;99.90;;;;;;5114831;28;20043;-86
2023/03/29 05:26:14;;;;;;;14.40;5.75;;;5.80;99.90;;;;;;5113603;28;20550;-87
2023/03/29 05:29:00;;;;;;;13.77;5.50;;;5.90;99.90;;;;;;5113017;28;20098;-82
2023/03/29 05:31:46;;;;;;;12.82;5.72;;;5.90;99.90;;;;;;5111776;28;20116;-86
2023/03/29 05:34:32;;;;;;;11.02;5.72;;;5.90;99.90;;;;;;5111385;28;20381;-85
2023/03/29 05:37:19;;;;;;;13.65;5.47;;;5.90;99.90;;;;;;5120291;28;20136;-84
2023/03/29 05:40:07;;;;;;;12.73;6.45;;;5.90;99.90;;;;;;5110612;28;20043;-82
2023/03/29 05:42:53;;;;;;;11.32;6.10;;;5.90;99.90;;;;;;5091044;28;20150;-83
2023/03/29 05:45:40;;;;;;;10.95;6.13;;;6.00;99.90;;;;;;5091161;28;20048;-83
2023/03/29 05:48:27;;;;;;;9.77;5.78;;;6.00;99.90;;;;;;5091624;28;20463;-84
2023/03/29 05:51:13;;;;;;;12.38;6.40;;;6.00;99.90;;;;;;5092960;28;20105;-85
2023/03/29 05:54:00;;;;;;;12.13;6.47;;;6.00;99.90;;;;;;5091799;28;20504;-84
2023/03/29 05:56:46;;;;;;;15.32;6.15;;;6.00;99.90;;;;;;5091230;28;20127;-86
2023/03/29 05:59:32;;;;;;;10.90;5.95;;;6.00;99.90;;;;;;5091546;28;20454;-85
2023/03/29 06:02:18;;;;;;;16.33;7.20;;;6.10;99.90;;;;;;5091435;28;20059;-82
2023/03/29 06:05:05;;;;;;;15.40;6.47;;;6.10;99.90;;;;;;5090352;28;20056;-84
2023/03/29 06:07:51;;;;;;;14.60;6.65;;;6.10;99.90;;;;;;5085298;28;20151;-85
2023/03/29 06:10:37;;;;;;;14.02;6.93;;;6.10;99.90;;;;;;5091245;28;20066;-83
2023/03/29 06:13:23;;;;;;;24.77;8.30;;;6.20;99.90;;;;;;5092191;28;20051;-85
2023/03/29 06:16:11;;;;;;;18.50;8.05;;;6.20;99.90;;;;;;5094109;28;20054;-85
2023/03/29 06:18:58;;;;;;;15.55;9.00;;;6.20;99.90;;;;;;5093045;28;20040;-87
2023/03/29 06:21:44;;;;;;;14.88;7.38;;;6.20;99.90;;;;;;5093960;28;20048;-83
2023/03/29 06:24:30;;;;;;;17.20;8.23;;;6.30;99.90;;;;;;5090419;28;20048;-83
2023/03/29 06:27:16;;;;;;;16.75;8.30;;;6.30;99.90;;;;;;5090170;28;20471;-82
2023/03/29 06:30:04;;;;;;;16.83;8.45;;;6.30;99.90;;;;;;5091822;28;20076;-87
2023/03/29 06:32:50;;;;;;;19.52;8.95;;;6.30;99.90;;;;;;5090707;28;20048;-84
2023/03/29 06:35:39;;;;;;;16.60;8.52;;;6.30;99.90;;;;;;5112492;28;20051;-83
2023/03/29 06:38:27;;;;;;;17.15;8.68;;;6.40;99.90;;;;;;5118632;28;20051;-82
2023/03/29 06:41:13;;;;;;;20.40;9.88;;;6.40;99.90;;;;;;5110664;28;20047;-83
2023/03/29 06:43:59;;;;;;;17.38;9.40;;;6.40;99.90;;;;;;5110339;28;20791;-83
2023/03/29 06:46:45;;;;;;;14.98;8.90;;;6.50;99.90;;;;;;5095914;28;20499;-83
2023/03/29 06:49:31;;;;;;;16.35;8.80;;;6.50;99.90;;;;;;5112868;28;20127;-87
2023/03/29 06:52:18;;;;;;;15.73;8.98;;;6.60;99.90;;;;;;5095730;28;20048;-84
2023/03/29 06:55:06;;;;;;;24.73;9.48;;;6.60;99.90;;;;;;5113010;28;20047;-82
2023/03/29 06:57:53;;;;;;;16.95;9.85;;;6.70;99.90;;;;;;5110390;28;20483;-83
2023/03/29 07:00:40;;;;;;;13.82;8.30;;;6.70;99.90;;;;;;5111131;28;20047;-83
2023/03/29 07:03:27;;;;;;;16.33;9.75;;;6.80;99.90;;;;;;5110944;28;20036;-84
2023/03/29 07:06:15;;;;;;;15.65;8.82;;;6.80;99.90;;;;;;5110338;28;20121;-82
2023/03/29 07:09:05;;;;;;;15.65;8.68;;;6.80;99.90;;;;;;5110311;28;20051;-82
2023/03/29 07:11:52;;;;;;;18.65;9.05;;;6.90;99.90;;;;;;5096166;28;20500;-88
2023/03/29 07:14:38;;;;;;;15.27;8.48;;;6.90;99.90;;;;;;5102457;28;20055;-84
2023/03/29 07:17:24;;;;;;;16.83;8.70;;;6.90;99.90;;;;;;5109981;28;20218;-84
2023/03/29 07:20:14;;;;;;;13.48;7.72;;;7.00;99.90;;;;;;5109814;28;20051;-82
2023/03/29 07:23:00;;;;;;;16.05;8.35;;;7.00;99.90;;;;;;5111143;28;20075;-83
2023/03/29 07:25:46;;;;;;;16.35;8.55;;;7.00;99.90;;;;;;5111225;28;20083;-86
2023/03/29 07:28:33;;;;;;;13.00;7.88;;;7.10;99.90;;;;;;5091475;28;20056;-86
2023/03/29 07:31:19;;;;;;;13.95;7.63;;;7.20;99.90;;;;;;5108720;28;20547;-86
2023/03/29 07:34:09;;;;;;;15.32;8.60;;;7.20;99.90;;;;;;5108606;28;20511;-85
2023/03/29 07:36:56;;;;;;;16.77;9.55;;;7.20;99.90;;;;;;5109895;28;20411;-84
2023/03/29 07:39:43;;;;;;;12.73;7.88;;;7.30;99.90;;;;;;5109286;28;20043;-83
2023/03/29 07:42:29;;;;;;;14.68;7.97;;;7.30;99.90;;;;;;5098850;28;20139;-83
2023/03/29 07:45:16;;;;;;;14.07;8.18;;;7.40;99.90;;;;;;5111768;28;20047;-83
2023/03/29 07:48:03;;;;;;;14.20;7.57;;;7.40;99.90;;;;;;5108949;28;20055;-84
2023/03/29 07:50:49;;;;;;;16.98;8.48;;;7.50;99.90;;;;;;5094631;28;20047;-83
2023/03/29 07:53:35;;;;;;;16.65;8.57;;;7.50;99.90;;;;;;5108790;28;20514;-86
2023/03/29 07:56:22;;;;;;;20.33;8.10;;;7.60;99.90;;;;;;5093969;28;20047;-86
2023/03/29 07:59:08;;;;;;;15.23;7.30;;;7.60;99.90;;;;;;5109781;28;20051;-84
2023/03/29 08:01:54;;;;;;;13.70;7.93;;;7.70;99.90;;;;;;5114333;28;20047;-85
2023/03/29 08:04:40;;;;;;;15.75;7.38;;;7.70;99.90;;;;;;5104325;28;20067;-85
2023/03/29 08:07:27;;;;;;;17.35;7.45;;;7.80;99.90;;;;;;5093983;28;20051;-88
2023/03/29 08:10:15;;;;;;;15.00;7.50;;;7.80;99.90;;;;;;5094132;28;20047;-86
2023/03/29 08:13:06;;;;;;;16.25;7.88;;;7.90;99.90;;;;;;5093089;28;20048;-87
2023/03/29 08:15:52;;;;;;;13.50;6.55;;;7.90;99.90;;;;;;5092720;28;20052;-87
2023/03/29 08:18:38;;;;;;;22.65;9.57;;;8.00;99.90;;;;;;5094587;28;20484;-84
2023/03/29 08:21:25;;;;;;;14.73;7.15;;;8.00;99.90;;;;;;5098881;28;20055;-86
2023/03/29 08:24:11;;;;;;;12.80;6.53;;;8.00;99.90;;;;;;5092462;28;20500;-85
2023/03/29 08:26:57;;;;;;;14.30;7.18;;;8.10;99.90;;;;;;5092714;28;20044;-84
2023/03/29 08:29:43;;;;;;;12.98;7.18;;;8.20;99.90;;;;;;5094245;28;20511;-82
2023/03/29 08:32:30;;;;;;;15.63;7.22;;;8.30;99.90;;;;;;5094026;28;20134;-85
2023/03/29 08:35:16;;;;;;;14.25;7.10;;;8.30;99.90;;;;;;5077122;28;20388;-84
2023/03/29 08:38:03;;;;;;;12.30;7.03;;;8.40;99.90;;;;;;5105729;28;20112;-86
2023/03/29 08:40:49;;;;;;;14.23;7.03;;;8.50;99.90;;;;;;5095880;28;20052;-83
2023/03/29 08:43:55;;;;;;;15.63;7.57;;;8.50;99.90;;;;;;5094689;28;20051;-81
2023/03/29 08:46:56;;;;;;;17.77;7.70;;;8.60;99.90;;;;;;5095793;28;20135;-82
2023/03/29 08:49:47;;;;;;;15.20;7.85;;;8.70;99.90;;;;;;5094907;28;20182;-84
2023/03/29 08:52:49;;;;;;;16.25;7.78;;;8.80;99.90;;;;;;5097100;28;20188;-85
2023/03/29 08:55:47;;;;;;;17.02;7.68;;;8.90;99.90;;;;;;5085657;28;20086;-86
2023/03/29 08:58:36;;;;;;;22.60;9.07;;;8.90;99.90;;;;;;5075213;28;20044;-84
2023/03/29 09:01:23;;;;;;;17.70;8.48;;;9.00;99.90;;;;;;5091124;28;20102;-84
2023/03/29 09:04:21;;;;;;;15.65;7.15;;;9.10;99.90;;;;;;5092168;28;20139;-82
2023/03/29 09:07:09;;;;;;;17.42;8.77;;;9.20;99.90;;;;;;5094013;28;20063;-82
2023/03/29 09:09:56;;;;;;;14.35;7.90;;;9.30;99.90;;;;;;5093174;28;20484;-85
2023/03/29 09:12:57;;;;;;;16.10;8.35;;;9.40;99.90;;;;;;5091299;28;20051;-85
2023/03/29 09:15:51;;;;;;;16.38;8.77;;;9.50;99.90;;;;;;5097604;28;20055;-84
2023/03/29 09:18:56;;;;;;;21.33;8.18;;;9.60;99.90;;;;;;5095829;28;20106;-86
2023/03/29 09:21:55;;;;;;;17.15;7.80;;;9.60;99.90;;;;;;5091528;28;20511;-82
2023/03/29 09:25:06;;;;;;;17.67;8.27;;;9.60;99.90;;;;;;5076316;28;20052;-85
2023/03/29 09:28:01;;;;;;;20.60;8.40;;;9.70;99.90;;;;;;5091077;28;20051;-82
2023/03/29 09:30:55;;;;;;;25.75;8.05;;;9.70;99.90;;;;;;5099051;28;20048;-86
2023/03/29 09:33:46;;;;;;;19.42;9.45;;;9.80;99.90;;;;;;5093619;28;20170;-82
2023/03/29 09:36:53;;;;;;;17.98;8.00;;;9.90;99.90;;;;;;5093693;28;20054;-85
2023/03/29 09:39:40;;;;;;;21.55;8.25;;;9.90;99.90;;;;;;5092430;28;20131;-83
2023/03/29 09:42:29;;;;;;;20.05;8.70;;;10.00;99.90;;;;;;5090490;28;20055;-83
2023/03/29 09:45:15;;;;;;;25.35;9.30;;;10.10;99.90;;;;;;5093412;28;20405;-84
2023/03/29 09:48:13;;;;;;;17.02;8.73;;;10.10;99.90;;;;;;5100481;28;20083;-84
2023/03/29 09:51:00;;;;;;;16.92;9.07;;;10.20;99.90;;;;;;5092010;28;20047;-83
2023/03/29 09:53:47;;;;;;;19.45;9.40;;;10.20;99.90;;;;;;5089762;28;20432;-83
2023/03/29 09:56:33;;;;;;;15.35;8.18;;;10.20;99.90;;;;;;5092366;28;20044;-83
2023/03/29 09:59:19;;;;;;;20.23;8.93;;;10.20;99.90;;;;;;5092537;28;20051;-84
2023/03/29 10:02:08;;;;;;;16.45;8.55;;;10.10;99.90;;;;;;5094355;28;20076;-86
2023/03/29 10:04:54;;;;;;;23.65;8.93;;;10.10;99.90;;;;;;5100169;28;20048;-87
2023/03/29 10:07:45;;;;;;;22.52;9.93;;;10.20;99.90;;;;;;5095083;28;20223;-83
2023/03/29 10:10:36;;;;;;;20.80;10.05;;;10.10;99.90;;;;;;5075927;28;20519;-84
2023/03/29 10:13:29;;;;;;;25.20;10.52;;;10.20;99.90;;;;;;5092322;28;20079;-86
2023/03/29 10:16:29;;;;;;;20.50;9.35;;;10.30;99.90;;;;;;5091071;28;20133;-86
2023/03/29 10:19:17;;;;;;;26.05;10.00;;;10.30;99.90;;;;;;5093571;28;20067;-84
2023/03/29 10:22:15;;;;;;;19.58;10.43;;;10.20;99.90;;;;;;5097236;28;20130;-87
2023/03/29 10:25:01;;;;;;;20.70;11.18;;;10.20;99.90;;;;;;5099263;28;20062;-83
2023/03/29 10:27:47;;;;;;;18.17;9.38;;;10.30;99.90;;;;;;5093568;28;20044;-83
2023/03/29 10:30:36;;;;;;;18.48;9.52;;;10.30;99.90;;;;;;5093828;28;20044;-85
2023/03/29 10:33:26;;;;;;;19.13;9.02;;;10.40;99.90;;;;;;5090286;28;20048;-86
2023/03/29 10:36:13;;;;;;;19.67;9.73;;;10.50;99.90;;;;;;5092142;28;20052;-82
2023/03/29 10:39:01;;;;;;;20.73;10.00;;;10.60;99.90;;;;;;5093563;28;20079;-86
2023/03/29 10:41:51;;;;;;;20.55;10.50;;;10.80;99.90;;;;;;5094803;28;20051;-85
2023/03/29 10:44:38;;;;;;;16.67;9.50;;;10.80;99.90;;;;;;5094795;28;20087;-84
2023/03/29 10:47:24;;;;;;;20.67;10.68;;;10.90;99.90;;;;;;5087794;28;20051;-87
2023/03/29 10:50:15;;;;;;;21.33;11.18;;;11.00;99.90;;;;;;5090818;28;20058;-83
2023/03/29 10:53:02;;;;;;;17.80;10.25;;;11.10;99.90;;;;;;5094064;28;20056;-86
2023/03/29 10:56:30;;;;;;;20.77;10.68;;;11.30;99.90;;;;;;5090812;28;20048;-84
2023/03/29 10:59:16;;;;;;;21.30;11.07;;;11.30;99.90;;;;;;5098383;28;20051;-85
2023/03/29 11:02:14;;;;;;;20.15;11.32;;;11.60;99.90;;;;;;5090693;28;20131;-83
2023/03/29 11:05:19;;;;;;;20.58;10.73;;;11.70;99.90;;;;;;5087363;28;20130;-84
2023/03/29 11:08:46;;;;;;;23.05;11.05;;;11.70;99.90;;;;;;5090020;28;20055;-85
2023/03/29 11:12:02;;;;;;;23.42;10.70;;;11.70;99.90;;;;;;5088520;28;20419;-86
2023/03/29 11:15:00;;;;;;;21.40;11.23;;;11.80;99.90;;;;;;5094109;28;20048;-85
2023/03/29 11:17:55;;;;;;;20.60;11.68;;;11.80;99.90;;;;;;5094317;28;20059;-84
2023/03/29 11:20:50;;;;;;;15.90;10.18;;;11.90;99.90;;;;;;5089377;28;20116;-83
2023/03/29 11:24:00;;;;;;;21.23;11.68;;;12.00;99.90;;;;;;5091129;28;20070;-83
2023/03/29 11:26:57;;;;;;;21.67;11.18;;;12.20;99.90;;;;;;5090989;28;20051;-85
2023/03/29 11:29:46;;;;;;;18.58;10.90;;;12.30;99.90;;;;;;5095036;28;20036;-83
2023/03/29 11:33:10;;;;;;;16.05;10.82;;;12.30;99.90;;;;;;5090909;28;20912;-82
2023/03/29 11:36:24;;;;;;;23.30;12.38;;;12.20;99.90;;;;;;5091649;28;20050;-86
2023/03/29 11:39:10;;;;;;;22.80;12.45;;;12.20;99.90;;;;;;5090532;28;20104;-83
2023/03/29 11:42:06;;;;;;;24.60;11.70;;;12.20;99.90;;;;;;5090880;28;20044;-86
2023/03/29 11:44:54;;;;;;;24.42;12.23;;;12.20;99.90;;;;;;5061154;28;20106;-85
2023/03/29 11:47:43;;;;;;;29.15;13.18;;;12.10;99.90;;;;;;5075348;28;20704;-83
2023/03/29 11:50:48;;;;;;;21.83;12.68;;;12.10;99.90;;;;;;5089298;28;20615;-85
2023/03/29 11:54:02;;;;;;;24.45;13.57;;;12.20;99.90;;;;;;5075516;28;20106;-86
2023/03/29 11:56:56;;;;;;;24.85;12.93;;;12.20;99.90;;;;;;5090013;28;20048;-83
2023/03/29 12:00:18;;;;;;;22.00;14.48;;;12.30;99.90;;;;;;5081719;28;20081;-83
2023/03/29 12:03:15;;;;;;;35.08;15.82;;;12.40;99.90;;;;;;5068174;28;20040;-84
2023/03/29 12:06:16;;;;;;;26.30;15.80;;;12.40;99.90;;;;;;5091047;28;20056;-83
2023/03/29 12:09:07;;;;;;;21.30;13.23;;;12.50;99.90;;;;;;5075466;28;20063;-85
2023/03/29 12:12:34;;;;;;;24.95;14.55;;;12.50;99.90;;;;;;5090988;28;20105;-84
2023/03/29 12:15:25;;;;;;;31.80;14.20;;;12.80;99.90;;;;;;5092965;28;20087;-83
2023/03/29 12:18:30;;;;;;;24.98;13.88;;;13.10;99.90;;;;;;5090518;28;20055;-83
2023/03/29 12:21:18;;;;;;;;;;;13.10;99.90;;;;;;5090255;28;20646;-83
2023/03/29 12:24:05;;;;;;;26.77;13.50;;;13.00;99.90;;;;;;5089455;28;19931;-83
2023/03/29 12:27:22;;;;;;;30.08;15.90;;;13.10;99.90;;;;;;5091158;28;20048;-82
2023/03/29 12:30:32;;;;;;;28.85;14.77;;;13.30;99.90;;;;;;5091934;28;20135;-84
2023/03/29 12:33:34;;;;;;;24.95;14.23;;;13.30;99.90;;;;;;5090654;28;20052;-84
2023/03/29 12:36:37;;;;;;;26.60;14.35;;;13.30;99.90;;;;;;5071128;28;20101;-84
2023/03/29 12:39:26;;;;;;;26.25;14.32;;;13.30;99.90;;;;;;5058662;28;20725;-84
2023/03/29 12:42:18;;;;;;;24.70;14.27;;;13.30;99.90;;;;;;5072425;28;20055;-84
2023/03/29 12:45:05;;;;;;;28.00;14.60;;;13.40;99.90;;;;;;5090856;28;20082;-85
2023/03/29 12:47:51;;;;;;;32.28;15.95;;;13.30;99.90;;;;;;5097632;28;20063;-85
2023/03/29 12:51:02;;;;;;;23.98;14.10;;;13.40;99.90;;;;;;5094503;28;20083;-83
2023/03/29 12:53:51;;;;;;;29.65;14.15;;;13.40;99.90;;;;;;5093709;28;20052;-84
2023/03/29 12:57:01;;;;;;;24.98;13.07;;;13.30;99.90;;;;;;5093188;28;20058;-83
2023/03/29 12:59:49;;;;;;;28.33;14.73;;;13.20;99.90;;;;;;5093548;28;20400;-85
2023/03/29 13:02:36;;;;;;;26.00;13.95;;;13.10;99.90;;;;;;5095979;28;20048;-84
2023/03/29 13:05:35;;;;;;;25.98;14.80;;;13.10;99.90;;;;;;5092465;28;20044;-83
2023/03/29 13:08:26;;;;;;;25.73;13.88;;;13.10;99.90;;;;;;5074468;28;20060;-83
2023/03/29 13:11:42;;;;;;;24.30;13.30;;;13.00;99.90;;;;;;5079625;28;20477;-82
2023/03/29 13:14:32;;;;;;;27.98;14.18;;;13.00;99.90;;;;;;5088108;28;20044;-82
2023/03/29 13:17:23;;;;;;;23.75;13.90;;;12.90;99.90;;;;;;5094410;28;20055;-86
2023/03/29 13:20:22;;;;;;;32.28;14.85;;;12.80;99.90;;;;;;5099913;28;20060;-86
2023/03/29 13:23:27;;;;;;;26.05;14.40;;;12.90;99.90;;;;;;5092665;28;20047;-84
2023/03/29 13:26:31;;;;;;;23.20;14.10;;;12.90;99.90;;;;;;5091356;28;20072;-83
2023/03/29 13:29:36;;;;;;;27.40;15.80;;;12.90;99.90;;;;;;5073680;28;20060;-84
2023/03/29 13:32:47;;;;;;;31.10;14.93;;;13.00;99.90;;;;;;5064761;28;20483;-85
2023/03/29 13:35:53;;;;;;;23.55;14.63;;;13.00;99.90;;;;;;5099717;28;20078;-83
2023/03/29 13:38:51;;;;;;;27.95;16.05;;;13.00;99.90;;;;;;5074203;28;20052;-85
2023/03/29 13:41:37;;;;;;;22.90;14.55;;;13.10;99.90;;;;;;5077834;28;20052;-83
2023/03/29 13:44:43;;;;;;;23.88;13.35;;;13.20;99.90;;;;;;5090627;28;20055;-87
2023/03/29 13:47:32;;;;;;;24.23;14.23;;;13.30;99.90;;;;;;5095458;28;20047;-84
2023/03/29 13:50:36;;;;;;;29.60;14.93;;;13.50;99.90;;;;;;5093033;28;20047;-83
2023/03/29 13:53:38;;;;;;;21.60;12.90;;;13.70;99.90;;;;;;5091833;28;20142;-83
2023/03/29 13:56:33;;;;;;;25.23;14.95;;;14.00;99.90;;;;;;5077911;28;20048;-83
2023/03/29 13:59:34;;;;;;;21.25;12.82;;;14.30;99.90;;;;;;5093011;28;20530;-84
2023/03/29 14:02:32;;;;;;;22.05;13.60;;;14.50;99.90;;;;;;5097282;28;20055;-83
2023/03/29 14:05:23;;;;;;;22.80;13.50;;;14.80;99.90;;;;;;5090638;28;20390;-83
2023/03/29 14:08:36;;;;;;;23.10;14.45;;;14.90;99.90;;;;;;5092412;28;20093;-83
2023/03/29 14:11:26;;;;;;;21.00;12.65;;;15.00;99.90;;;;;;5091340;28;20056;-83
2023/03/29 14:14:12;;;;;;;19.92;13.55;;;15.30;99.90;;;;;;5076902;28;20108;-85
2023/03/29 14:16:59;;;;;;;22.55;13.45;;;15.40;99.90;;;;;;5098376;28;20100;-83
2023/03/29 14:19:47;;;;;;;24.27;13.15;;;15.40;99.90;;;;;;5075779;28;20143;-83
2023/03/29 14:22:33;;;;;;;24.25;15.45;;;15.20;99.90;;;;;;5091183;28;20125;-83
2023/03/29 14:25:21;;;;;;;21.75;13.98;;;15.30;99.90;;;;;;5090425;28;21020;-86
2023/03/29 14:28:24;;;;;;;21.60;13.45;;;15.60;99.90;;;;;;5092917;28;20059;-83
2023/03/29 14:31:25;;;;;;;23.70;13.20;;;15.90;99.90;;;;;;5096408;28;20040;-84
2023/03/29 14:34:14;;;;;;;23.23;13.38;;;16.20;99.90;;;;;;5075494;28;20051;-83
2023/03/29 14:37:00;;;;;;;19.98;12.88;;;16.30;99.90;;;;;;5100888;28;20044;-85
2023/03/29 14:39:48;;;;;;;22.70;13.55;;;16.40;99.90;;;;;;5098146;28;20072;-85
2023/03/29 14:42:37;;;;;;;19.65;12.88;;;16.40;99.90;;;;;;5092003;28;20048;-84
2023/03/29 14:45:23;;;;;;;23.50;15.25;;;15.90;99.90;;;;;;5097150;28;20051;-85
2023/03/29 14:48:12;;;;;;;19.20;13.65;;;15.60;99.90;;;;;;5092939;28;20116;-83